Main page
METAR-TAF:

METAR-TAF

Airports :

Ioannina National Airport

Ioannina, Greece

latitude: 39-41-47N, longitude: 20-49-21E, elevation: 475 m

Current weather observation

The report was made 36 minutes ago, at 20:50 UTC
Calm wind
Temperature 5°C
Humidity 93%
Pressure 1019 hPa

METAR: LGIO 182050Z AUTO 00000KT //// // ////// 05/04 Q1019 RE//

Time: 23:26 (21:26 UTC)

Forecast

The report was made 1 hour and 26 minutes ago, at 20:00 UTC
Forecast valid from 18 at 21 UTC to 19 at 06 UTC
Wind 3 kt from variable directions
Visibility 10 km or more
no clouds below 1500 m and no cumulonimbus
Becoming
from 19 at 00 UTC to 19 at 02 UTC
Visibility: 3000 m
Broken clouds at a height of 200 ft
mist
Becoming
from 19 at 03 UTC to 19 at 05 UTC
Visibility: 0200 m
Overcast at a height of 100 ft
fog

TAF: LGIO 182000Z 1821/1906 VRB03KT CAVOK BECMG 1900/1902 3000 BR BKN002 BECMG 1903/1905 0200 FG OVC001

Weather observations and forecasts of more than 4000 airports (METAR and TAF reports).

The available stations are represented by yellow and red dots on the map.

Hover mouse over dot to see the name of the station.

Then click to see weather observations and forecasts.

To change the map : click on the green buttons with a black cross to zoom in, on the green button with a dash to zoom out, or on the green arrows for adjacent maps.


METAR-TAF: